EW0132 Weather Reports


time (UTC)temp
C
wind
direction
speed
KPH
gust
KPH
rain 1hr
cm
rain 24hr
cm
rain mn
cm
humidity
%
barometer
mb
20260509162008 10 254 4.8 14.5 0.08 0.69 0.69 91 1009.7
20260509161542 10 256 6.4 12.9 0.08 0.69 0.69 91 1011.1
20260509161528 10 201 6.4 12.9 0.08 0.69 0.69 91 1009.8
20260509161009 10 200 4.8 14.5 0.08 0.69 0.69 91 1009.8
20260509160509 10 310 4.8 14.5 0.10 0.69 0.69 91 1009.8
20260509160049 10 257 3.2 14.5 0.08 0.66 0.66 91 1011.2
20260509160021 10 273 4.8 14.5 0.08 0.66 0.66 92 1009.8
20260509155507 10 290 4.8 12.9 0.08 0.66 0.66 91 1009.8
20260509155007 10 243 4.8 14.5 0.10 0.66 0.66 91 1009.9
20260509154549 10 213 4.8 14.5 0.10 0.66 0.66 91 1011.4
20260509154521 10 218 4.8 14.5 0.10 0.66 0.66 91 1009.8
20260509154010 10 232 4.8 14.5 0.10 0.66 0.66 91 1009.9
20260509153507 10 263 3.2 14.5 0.08 0.64 0.64 91 1009.9
20260509153058 10 209 3.2 12.9 0.08 0.64 0.64 91 1011.2
20260509153040 10 213 3.2 12.9 0.08 0.64 0.64 91 1009.8
20260509152511 10 209 3.2 19.3 0.08 0.64 0.64 91 1009.8
20260509152013 10 257 6.4 19.3 0.05 0.61 0.61 91 1009.8
20260509151548 10 239 6.4 19.3 0.05 0.61 0.61 91 1011.3
20260509151520 10 215 4.8 19.3 0.08 0.61 0.61 91 1009.8
20260509151008 10 237 6.4 14.5 0.08 0.61 0.61 91 1009.8
20260509150513 10 253 6.4 16.1 0.05 0.58 0.58 91 1009.9
20260509150047 10 267 8.0 16.1 0.05 0.58 0.58 91 1011.3
20260509150030 10 275 6.4 16.1 0.05 0.58 0.58 91 1009.9
20260509145510 10 79 4.8 14.5 0.05 0.58 0.58 91 1009.8
20260509145007 10 223 6.4 14.5 0.03 0.56 0.56 91 1009.9
20260509144547 10 257 4.8 14.5 0.03 0.56 0.56 91 1011.4
20260509144514 10 247 4.8 14.5 0.03 0.56 0.56 91 1009.9
20260509144003 10 253 8.0 14.5 0.05 0.56 0.56 91 1010.0
20260509143508 10 212 6.4 14.5 0.05 0.56 0.56 91 1010.0
20260509143042 10 267 3.2 12.9 0.05 0.56 0.56 91 1011.4
20260509143016 10 232 3.2 12.9 0.08 0.56 0.56 91 1010.0
20260509142504 10 227 4.8 12.9 0.08 0.56 0.56 91 1009.9
20260509142004 10 219 4.8 12.9 0.08 0.56 0.56 91 1009.9
20260509141546 10 230 4.8 14.5 0.08 0.53 0.53 92 1011.3
20260509141507 10 254 3.2 14.5 0.08 0.53 0.53 92 1010.0
20260509141007 10 261 3.2 14.5 0.08 0.53 0.53 91 1010.0
20260509140504 10 202 6.4 14.5 0.10 0.53 0.53 92 1009.9
20260509140052 10 234 4.8 16.1 0.10 0.53 0.53 92 1011.4
20260509140008 10 257 4.8 16.1 0.10 0.53 0.53 92 1010.0
20260509135504 10 221 3.2 16.1 0.10 0.53 0.53 91 1010.0
20260509135009 10 267 6.4 14.5 0.10 0.53 0.53 91 1010.1
20260509134547 9 259 4.8 16.1 0.13 0.53 0.53 91 1011.5
20260509134508 9 219 4.8 16.1 0.13 0.53 0.53 91 1010.1
20260509134007 9 194 4.8 16.1 0.10 0.51 0.51 91 1010.1
20260509133506 9 233 3.2 17.7 0.13 0.51 0.51 91 1010.2
20260509133046 9 245 8.0 17.7 0.13 0.51 0.51 91 1011.6
20260509133014 9 259 9.7 17.7 0.10 0.48 0.48 91 1010.2
20260509132508 9 259 3.2 14.5 0.13 0.48 0.48 92 1010.2
20260509132004 9 249 6.4 14.5 0.15 0.48 0.48 92 1010.2
20260509131547 9 0 4.8 12.9 0.13 0.46 0.46 92 1011.6
20260509131518 9 209 4.8 12.9 0.13 0.46 0.46 92 1010.2
20260509131007 10 242 4.8 12.9 0.15 0.46 0.46 92 1010.3
20260509130504 9 269 4.8 12.9 0.13 0.43 0.43 92 1010.2
20260509130046 9 294 4.8 12.9 0.15 0.43 0.43 92 1011.6
20260509130008 9 246 4.8 12.9 0.15 0.43 0.43 92 1010.2
20260509125509 9 221 3.2 12.9 0.15 0.43 0.43 92 1010.2
20260509125006 9 229 4.8 12.9 0.15 0.43 0.43 92 1010.3
20260509124547 9 246 3.2 11.3 0.15 0.41 0.41 92 1011.7
20260509124515 9 254 3.2 11.3 0.15 0.41 0.41 92 1010.4
20260509124005 9 213 1.6 11.3 0.15 0.41 0.41 91 1010.3
20260509123509 9 216 4.8 12.9 0.13 0.38 0.38 91 1010.3
20260509123049 9 273 3.2 12.9 0.13 0.38 0.38 91 1011.7
20260509123016 9 267 3.2 12.9 0.15 0.38 0.38 91 1010.3
20260509122506 9 268 4.8 14.5 0.13 0.36 0.36 91 1010.4
20260509122008 9 224 3.2 14.5 0.10 0.33 0.33 91 1010.3
20260509121547 9 217 4.8 11.3 0.13 0.33 0.33 91 1011.8
20260509121513 9 237 3.2 11.3 0.13 0.33 0.33 91 1010.5
20260509121009 9 234 6.4 12.9 0.10 0.30 0.30 91 1010.6
20260509120506 9 276 4.8 12.9 0.10 0.30 0.30 91 1010.6
20260509120012 9 225 3.2 12.9 0.10 0.28 0.28 91 1010.5
20260509115507 8 192 1.6 12.9 0.10 0.28 0.28 91 1010.4
20260509115003 8 248 4.8 12.9 0.13 0.28 0.28 91 1010.5
20260509114548 8 0 1.6 8.0 0.10 0.25 0.25 91 1011.9
20260509114511 8 201 1.6 8.0 0.10 0.25 0.25 91 1010.4
20260509114005 8 259 0.0 8.0 0.10 0.25 0.25 91 1010.4
20260509113507 8 263 3.2 9.7 0.13 0.25 0.25 91 1010.4
20260509113050 8 255 3.2 12.9 0.13 0.25 0.25 90 1011.9
20260509113016 8 219 3.2 12.9 0.10 0.23 0.23 90 1010.4
20260509112506 8 207 3.2 12.9 0.10 0.23 0.23 90 1010.4
20260509112006 8 188 1.6 8.0 0.10 0.23 0.23 90 1010.3
20260509111542 8 271 1.6 8.0 0.08 0.20 0.20 90 1011.8
20260509111518 8 221 1.6 6.4 0.08 0.20 0.20 90 1010.3
20260509111004 8 236 3.2 11.3 0.08 0.20 0.20 90 1010.3
20260509110509 8 240 4.8 11.3 0.10 0.20 0.20 89 1010.2
20260509110045 8 243 4.8 19.3 0.08 0.18 0.18 89 1011.7
20260509110021 8 267 4.8 19.3 0.08 0.18 0.18 89 1010.3
20260509105506 8 240 4.8 19.3 0.08 0.18 0.18 89 1010.3
20260509105007 8 217 9.7 19.3 0.08 0.15 0.15 89 1010.3
20260509104548 8 271 9.7 19.3 0.08 0.15 0.15 88 1011.7
20260509104520 8 265 9.7 19.3 0.08 0.15 0.15 88 1010.3
20260509104008 8 267 12.9 20.9 0.08 0.15 0.15 88 1010.2
20260509103508 8 260 12.9 20.9 0.08 0.13 0.13 88 1010.2
20260509103042 8 251 9.7 24.1 0.08 0.13 0.13 88 1011.7
20260509103014 8 251 8.0 20.9 0.08 0.13 0.13 88 1010.3
20260509102505 8 285 14.5 24.1 0.08 0.13 0.13 87 1010.3
20260509102007 8 244 14.5 25.7 0.10 0.13 0.13 88 1010.3
20260509101552 8 262 12.9 25.7 0.10 0.13 0.13 88 1011.7
20260509101513 8 271 16.1 25.7 0.10 0.13 0.13 88 1010.3
20260509101012 8 250 14.5 22.5 0.10 0.13 0.13 88 1010.3
20260509100507 8 246 9.7 20.9 0.10 0.10 0.10 88 1010.4
20260509100048 8 257 8.0 19.3 0.10 0.10 0.10 88 1011.9
20260509100021 8 246 8.0 19.3 0.10 0.10 0.10 88 1010.3
20260509095510 8 255 11.3 22.5 0.10 0.10 0.10 88 1010.4
20260509095007 8 256 11.3 24.1 0.08 0.08 0.08 88 1010.6
20260509094548 8 238 11.3 24.1 0.08 0.08 0.08 87 1012.0
20260509094523 8 238 9.7 24.1 0.08 0.08 0.08 87 1010.7
20260509094006 8 259 14.5 22.5 0.08 0.08 0.08 87 1010.7
20260509093506 8 273 11.3 20.9 0.05 0.05 0.05 86 1010.9
20260509093050 9 260 12.9 20.9 0.05 0.05 0.05 85 1012.3
20260509093026 9 265 12.9 20.9 0.05 0.05 0.05 85 1010.9
20260509092508 9 259 14.5 22.5 0.05 0.05 0.05 84 1010.8
20260509092009 9 272 11.3 22.5 0.03 0.03 0.03 83 1010.9
20260509091602 10 271 14.5 30.6 0.03 0.03 0.03 82 1012.2
20260509091518 10 248 14.5 30.6 0.03 0.03 0.03 82 1010.7
20260509091008 10 252 16.1 30.6 0.03 0.03 0.03 82 1010.6
20260509090510 8 258 4.8 8.0 0.00 0.00 0.00 87 1010.6
20260509090047 8 290 0.0 3.2 0.00 0.00 0.00 86 1012.0
20260509090022 8 261 1.6 3.2 0.00 0.00 0.00 86 1010.5
20260509085508 8 258 0.0 4.8 0.00 0.00 0.00 86 1010.4
20260509085009 8 289 1.6 4.8 0.00 0.00 0.00 85 1010.5
20260509084554 8 0 0.0 4.8 0.00 0.00 0.00 85 1011.9
20260509084524 8 237 0.0 4.8 0.00 0.00 0.00 85 1010.3
20260509084009 8 246 0.0 4.8 0.00 0.00 0.00 85 1010.4
20260509083509 8 214 1.6 6.4 0.00 0.00 0.00 85 1010.3
20260509083053 8 263 1.6 8.0 0.00 0.00 0.00 85 1011.6
20260509083018 8 263 1.6 8.0 0.00 0.00 0.00 85 1010.2
20260509082506 8 269 3.2 8.0 0.00 0.00 0.00 84 1010.1
20260509082008 8 147 0.0 4.8 0.00 0.00 0.00 84 1010.0
20260509081543 8 0 0.0 6.4 0.00 0.00 0.00 84 1011.5
20260509081523 8 265 0.0 6.4 0.00 0.00 0.00 84 1010.0
20260509081011 8 259 3.2 6.4 0.00 0.00 0.00 84 1010.1
20260509080507 8 261 1.6 6.4 0.00 0.00 0.00 84 1010.0
20260509080051 8 0 0.0 0.0 0.00 0.00 0.00 84 1011.3
20260509080020 8 251 0.0 0.0 0.00 0.00 0.00 84 1009.8
20260509075506 8 297 0.0 0.0 0.00 0.00 0.00 84 1009.8
20260509075007 8 285 0.0 0.0 0.00 0.00 0.00 84 1009.8
20260509074551 8 0 0.0 0.0 0.00 0.00 0.00 84 1011.3
20260509074523 8 283 0.0 0.0 0.00 0.00 0.00 84 1009.9
20260509074007 8 247 0.0 0.0 0.00 0.00 0.00 84 1009.8
20260509073507 8 247 0.0 0.0 0.00 0.00 0.00 84 1009.8
20260509073112 8 0 0.0 0.0 0.00 0.00 0.00 84 1011.2
20260509073022 8 238 0.0 0.0 0.00 0.00 0.00 84 1009.8
20260509072508 8 272 0.0 0.0 0.00 0.00 0.00 84 1009.7
20260509072013 8 255 0.0 0.0 0.00 0.00 0.00 84 1009.6
20260509071543 8 0 0.0 4.8 0.00 0.00 0.00 84 1011.1
20260509071524 8 233 0.0 3.2 0.00 0.00 0.00 84 1009.7
20260509071007 8 254 0.0 6.4 0.00 0.00 0.00 83 1009.7
20260509070509 8 269 3.2 6.4 0.00 0.00 0.00 82 1009.8
20260509070054 8 0 0.0 0.0 0.00 0.00 0.00 82 1011.1
20260509070024 8 44 0.0 0.0 0.00 0.00 0.00 82 1009.7
20260509065510 8 44 0.0 0.0 0.00 0.00 0.00 81 1009.7
20260509065009 8 75 0.0 0.0 0.00 0.00 0.00 81 1009.7
20260509064550 8 0 0.0 0.0 0.00 0.00 0.00 81 1011.1
20260509064519 8 75 0.0 0.0 0.00 0.00 0.00 81 1009.7
20260509064009 8 75 0.0 0.0 0.00 0.00 0.00 81 1009.7
20260509063511 8 75 0.0 0.0 0.00 0.00 0.00 80 1009.9
20260509063046 8 0 0.0 0.0 0.00 0.00 0.00 80 1011.5
20260509063023 8 75 0.0 0.0 0.00 0.00 0.00 80 1010.1
20260509062511 8 75 0.0 0.0 0.00 0.00 0.00 80 1010.2
20260509062009 9 75 0.0 0.0 0.00 0.00 0.00 79 1010.3
20260509061543 9 0 0.0 0.0 0.00 0.00 0.00 79 1011.9
20260509061528 9 75 0.0 0.0 0.00 0.00 0.00 79 1010.5
20260509061010 9 75 0.0 0.0 0.00 0.00 0.00 79 1010.6
20260509060509 9 90 0.0 0.0 0.00 0.00 0.00 78 1010.6
20260509060057 9 0 0.0 0.0 0.00 0.00 0.00 78 1012.0
20260509060033 9 90 0.0 0.0 0.00 0.00 0.00 78 1010.7
20260509055504 10 90 0.0 0.0 0.00 0.00 0.00 77 1010.7
20260509055010 10 90 0.0 3.2 0.00 0.00 0.00 76 1010.7
20260509054555 10 0 0.0 6.4 0.00 0.00 0.00 76 1012.2
20260509054508 10 13 0.0 4.8 0.00 0.00 0.00 76 1010.8
20260509054009 10 331 3.2 6.4 0.00 0.00 0.00 76 1011.0
20260509053506 10 325 1.6 6.4 0.00 0.00 0.00 76 1011.1
20260509053051 10 0 0.0 4.8 0.00 0.00 0.00 75 1012.7
20260509053006 10 34 0.0 4.8 0.00 0.00 0.00 75 1011.2
20260509052508 10 34 0.0 4.8 0.00 0.00 0.00 75 1011.3
20260509052005 10 86 0.0 4.8 0.00 0.00 0.00 75 1011.2
20260509051545 10 86 1.6 4.8 0.00 0.00 0.00 76 1012.7
20260509051504 10 86 1.6 4.8 0.00 0.00 0.00 76 1011.2
20260509051003 10 86 0.0 4.8 0.00 0.00 0.00 76 1011.3
20260509050506 10 84 3.2 4.8 0.00 0.00 0.00 76 1011.3
20260509050050 10 0 0.0 3.2 0.00 0.00 0.00 76 1012.9
20260509050029 10 92 0.0 3.2 0.00 0.00 0.00 76 1011.4
20260509045505 10 92 0.0 4.8 0.00 0.00 0.00 75 1011.4
20260509045003 10 92 1.6 6.4 0.00 0.00 0.00 75 1011.4
20260509044546 10 89 4.8 6.4 0.00 0.00 0.00 74 1012.9
20260509044512 10 85 4.8 6.4 0.00 0.00 0.00 73 1011.4
20260509044004 11 324 0.0 0.0 0.00 0.00 0.00 71 1011.4
20260509043502 11 324 0.0 0.0 0.00 0.00 0.00 71 1011.4
20260509043050 11 0 0.0 0.0 0.00 0.00 0.00 71 1012.7
20260509043021 11 324 0.0 0.0 0.00 0.00 0.00 71 1011.3
20260509042507 11 324 0.0 0.0 0.00 0.00 0.00 71 1011.3
20260509042017 11 324 0.0 3.2 0.00 0.00 0.00 71 1011.4
20260509041544 11 0 0.0 16.1 0.00 0.00 0.00 69 1012.8
20260509041516 11 324 0.0 16.1 0.00 0.00 0.00 70 1011.3
20260509041004 11 311 0.0 16.1 0.00 0.00 0.00 69 1011.3
20260509040506 11 352 6.4 16.1 0.00 0.00 0.00 70 1011.4
20260509040005 11 291 9.7 16.1 0.00 0.00 0.00 70 1011.5
20260509035508 10 336 0.0 4.8 0.00 0.00 0.00 75 1011.6
20260509035003 10 322 0.0 0.0 0.00 0.00 0.00 74 1011.6
20260509034550 10 0 0.0 0.0 0.00 0.00 0.00 75 1013.0
20260509034509 10 322 0.0 0.0 0.00 0.00 0.00 75 1011.5
20260509034003 10 345 0.0 0.0 0.00 0.00 0.00 75 1011.6
20260509033503 9 91 0.0 0.0 0.00 0.00 0.00 76 1011.6
20260509033047 9 0 0.0 0.0 0.00 0.00 0.00 77 1013.1
20260509033005 9 355 0.0 0.0 0.00 0.00 0.00 77 1011.7
20260509032509 9 335 0.0 0.0 0.00 0.00 0.00 77 1011.7
20260509032010 9 335 0.0 0.0 0.00 0.00 0.00 78 1011.7
20260509031548 9 0 0.0 0.0 0.00 0.00 0.00 78 1013.1
20260509031530 9 335 0.0 0.0 0.00 0.00 0.00 78 1011.7
20260509031010 9 335 0.0 0.0 0.00 0.00 0.00 79 1011.6
20260509030507 9 224 0.0 0.0 0.00 0.00 0.00 79 1011.7
20260509030049 9 0 0.0 0.0 0.00 0.00 0.00 79 1013.2
20260509030032 9 224 0.0 0.0 0.00 0.00 0.00 79 1011.7
20260509025511 9 224 0.0 0.0 0.00 0.00 0.00 79 1011.6
20260509025004 9 224 0.0 0.0 0.00 0.00 0.00 78 1011.7
20260509024549 9 0 0.0 0.0 0.00 0.00 0.00 77 1013.1
20260509024506 10 224 0.0 0.0 0.00 0.00 0.00 77 1011.7
20260509024007 10 224 0.0 0.0 0.00 0.00 0.00 75 1011.7
20260509023506 10 224 0.0 0.0 0.00 0.00 0.00 75 1011.8
20260509023046 10 0 0.0 0.0 0.00 0.00 0.00 75 1013.2
20260509023014 10 224 0.0 0.0 0.00 0.00 0.00 75 1011.8
20260509022510 10 224 0.0 0.0 0.00 0.00 0.00 75 1011.8
20260509022007 9 136 0.0 0.0 0.00 0.00 0.00 75 1011.8
20260509021548 9 0 0.0 0.0 0.00 0.00 0.00 75 1013.2
20260509021517 9 136 0.0 0.0 0.00 0.00 0.00 75 1011.8
20260509021003 9 136 0.0 0.0 0.00 0.00 0.00 76 1011.7
20260509020507 9 136 0.0 0.0 0.00 0.00 0.00 76 1011.7
20260509020044 10 0 0.0 0.0 0.00 0.00 0.00 75 1013.0
20260509020012 10 136 0.0 0.0 0.00 0.00 0.00 75 1011.6
20260509015508 10 136 0.0 0.0 0.00 0.00 0.00 75 1011.5
20260509015006 10 136 0.0 0.0 0.00 0.00 0.00 75 1011.4
20260509014550 10 0 0.0 0.0 0.00 0.00 0.00 75 1012.9
20260509014508 10 136 0.0 0.0 0.00 0.00 0.00 75 1011.6
20260509014009 10 136 0.0 1.6 0.00 0.00 0.00 74 1011.4
20260509013504 10 136 0.0 3.2 0.00 0.00 0.00 74 1011.4
20260509013051 10 136 1.6 3.2 0.00 0.00 0.00 73 1012.7
20260509013007 10 136 1.6 3.2 0.00 0.00 0.00 73 1011.4
20260509012505 10 136 0.0 0.0 0.00 0.00 0.00 73 1011.4
20260509012007 10 136 0.0 0.0 0.00 0.00 0.00 72 1011.3
20260509011604 11 0 0.0 0.0 0.00 0.00 0.00 72 1012.8
20260509011513 11 136 0.0 0.0 0.00 0.00 0.00 72 1011.3
20260509011008 11 136 0.0 0.0 0.00 0.00 0.00 72 1011.4
20260509010505 11 136 0.0 0.0 0.00 0.00 0.00 71 1011.4
20260509010050 11 0 0.0 0.0 0.00 0.00 0.00 71 1012.8
20260509010022 11 136 0.0 0.0 0.00 0.00 0.00 71 1011.3
20260509005509 11 136 0.0 0.0 0.00 0.00 0.00 70 1011.2
20260509005011 11 136 0.0 0.0 0.00 0.00 0.00 70 1011.3
20260509004605 11 0 0.0 0.0 0.00 0.00 0.00 70 1012.7
20260509004526 11 136 0.0 0.0 0.00 0.00 0.00 69 1011.3
20260509004006 11 136 0.0 0.0 0.00 0.00 0.00 69 1011.3
20260509003511 11 136 0.0 1.6 0.00 0.00 0.00 69 1011.3
20260509003050 11 0 0.0 1.6 0.00 0.00 0.00 69 1012.7
20260509003021 11 136 0.0 1.6 0.00 0.00 0.00 69 1011.3
20260509002509 11 136 0.0 1.6 0.00 0.00 0.00 69 1011.3
20260509002007 11 136 0.0 1.6 0.00 0.00 0.00 69 1011.2
20260509001549 11 0 0.0 1.6 0.00 0.00 0.00 68 1012.6
20260509001508 11 136 0.0 1.6 0.00 0.00 0.00 68 1011.1
20260509001004 11 136 0.0 1.6 0.00 0.00 0.00 67 1011.1
20260509000504 11 85 0.0 1.6 0.00 0.00 0.00 65 1011.1
20260509000053 11 0 0.0 1.6 0.00 0.00 0.00 65 1012.5
20260509000015 11 313 0.0 1.6 0.00 0.00 0.00 65 1011.1
20260508235508 12 103 0.0 1.6 0.00 0.00 0.00 64 1011.2
20260508235009 12 103 0.0 1.6 0.00 0.00 0.00 65 1011.2
20260508234548 12 0 0.0 3.2 0.00 0.00 0.00 65 1012.7
20260508234509 12 103 0.0 1.6 0.00 0.00 0.00 65 1011.3
20260508234009 12 316 0.0 3.2 0.00 0.00 0.00 64 1011.2
20260508233507 12 98 0.0 3.2 0.00 0.00 0.00 65 1011.3
20260508233048 12 0 0.0 1.6 0.00 0.00 0.00 65 1012.5
20260508233022 12 113 0.0 1.6 0.00 0.00 0.00 65 1011.1
20260508232510 12 250 0.0 0.0 0.00 0.00 0.00 65 1011.1
20260508231554 12 0 0.0 1.6 0.00 0.00 0.00 65 1012.4
20260508230044 12 0 0.0 4.8 0.00 0.00 0.00 68 1012.4
20260508224551 12 0 0.0 1.6 0.00 0.00 0.00 67 1012.4
20260508223056 12 0 0.0 6.4 0.00 0.00 0.00 64 1012.4
20260508221549 13 284 1.6 9.7 0.00 0.00 0.00 61 1012.4
20260508220056 13 165 1.6 6.4 0.00 0.00 0.00 66 1012.5
20260508214554 11 184 0.0 6.4 0.00 0.00 0.00 68 1012.7
20260508213049 11 298 4.8 14.5 0.00 0.00 0.00 68 1013.2
20260508211550 11 280 6.4 14.5 0.00 0.00 0.00 67 1013.0
20260508210049 11 273 6.4 14.5 0.00 0.00 0.00 68 1013.3
20260508204550 11 266 6.4 19.3 0.00 0.00 0.00 68 1013.5
20260508203050 11 227 8.0 17.7 0.00 0.00 0.00 69 1013.8
20260508201544 11 250 11.3 22.5 0.00 0.00 0.00 67 1013.7
20260508200045 11 277 11.3 22.5 0.00 0.00 0.00 67 1013.8
20260508194545 11 277 16.1 33.8 0.00 0.00 0.00 65 1014.0
20260508193103 12 298 12.9 29.0 0.00 0.00 0.00 63 1014.0
20260508191547 12 221 20.9 33.8 0.00 0.00 0.00 60 1013.9
20260508190050 12 251 20.9 38.6 0.00 0.00 0.00 59 1013.9
20260508184600 12 269 16.1 35.4 0.00 0.00 0.00 59 1013.9
20260508183050 12 292 20.9 40.2 0.00 0.00 0.00 57 1013.8
20260508181559 13 284 17.7 38.6 0.00 0.00 0.00 58 1013.7
20260508180049 13 237 19.3 35.4 0.00 0.00 0.00 56 1013.8
20260508174547 12 284 17.7 41.8 0.00 0.00 0.00 57 1014.1
20260508173048 13 257 20.9 38.6 0.00 0.00 0.00 54 1014.0
20260508171551 13 252 22.5 35.4 0.00 0.00 0.00 52 1013.9
20260508170050 13 272 24.1 46.7 0.00 0.00 0.00 52 1014.1
20260508164548 13 252 22.5 48.3 0.00 0.00 0.00 50 1014.2
20260508163048 13 273 24.1 41.8 0.00 0.00 0.00 53 1014.3